sensor_id;sensor_type;location;lat;lon;timestamp;P1;durP1;ratioP1;P2;durP2;ratioP2
64401;SDS011;50724;42.376;23.768;2024-02-14T00:02:15;5.05;;;1.67;;
64401;SDS011;50724;42.376;23.768;2024-02-14T00:05:15;3.67;;;1.87;;
64401;SDS011;50724;42.376;23.768;2024-02-14T00:08:16;4.28;;;1.80;;
64401;SDS011;50724;42.376;23.768;2024-02-14T00:11:17;2.53;;;1.30;;
64401;SDS011;50724;42.376;23.768;2024-02-14T00:14:25;3.10;;;1.52;;
64401;SDS011;50724;42.376;23.768;2024-02-14T00:17:26;4.70;;;1.80;;
64401;SDS011;50724;42.376;23.768;2024-02-14T00:20:26;4.70;;;2.40;;
64401;SDS011;50724;42.376;23.768;2024-02-14T00:23:36;4.20;;;1.90;;
64401;SDS011;50724;42.376;23.768;2024-02-14T00:26:36;4.90;;;2.30;;
64401;SDS011;50724;42.376;23.768;2024-02-14T00:29:37;6.47;;;1.77;;
64401;SDS011;50724;42.376;23.768;2024-02-14T00:32:38;5.35;;;2.55;;
64401;SDS011;50724;42.376;23.768;2024-02-14T00:35:38;4.37;;;2.20;;
64401;SDS011;50724;42.376;23.768;2024-02-14T00:38:38;5.85;;;2.50;;
64401;SDS011;50724;42.376;23.768;2024-02-14T00:41:39;6.55;;;2.80;;
64401;SDS011;50724;42.376;23.768;2024-02-14T00:44:40;4.45;;;2.35;;
64401;SDS011;50724;42.376;23.768;2024-02-14T00:47:40;5.37;;;2.63;;
64401;SDS011;50724;42.376;23.768;2024-02-14T00:50:40;5.57;;;2.60;;
64401;SDS011;50724;42.376;23.768;2024-02-14T00:53:41;5.30;;;2.90;;
64401;SDS011;50724;42.376;23.768;2024-02-14T00:56:41;4.60;;;2.13;;
64401;SDS011;50724;42.376;23.768;2024-02-14T00:59:42;5.93;;;2.67;;
64401;SDS011;50724;42.376;23.768;2024-02-14T01:02:42;5.17;;;2.27;;
64401;SDS011;50724;42.376;23.768;2024-02-14T01:05:43;4.55;;;2.30;;
64401;SDS011;50724;42.376;23.768;2024-02-14T01:08:44;5.20;;;2.75;;
64401;SDS011;50724;42.376;23.768;2024-02-14T01:11:44;7.05;;;2.83;;
64401;SDS011;50724;42.376;23.768;2024-02-14T01:14:45;4.43;;;2.10;;
64401;SDS011;50724;42.376;23.768;2024-02-14T01:17:45;4.57;;;2.00;;
64401;SDS011;50724;42.376;23.768;2024-02-14T01:20:47;4.97;;;2.35;;
64401;SDS011;50724;42.376;23.768;2024-02-14T01:23:56;4.35;;;2.10;;
64401;SDS011;50724;42.376;23.768;2024-02-14T01:26:57;5.57;;;1.80;;
64401;SDS011;50724;42.376;23.768;2024-02-14T01:29:58;6.25;;;2.60;;
64401;SDS011;50724;42.376;23.768;2024-02-14T01:32:58;5.35;;;2.47;;
64401;SDS011;50724;42.376;23.768;2024-02-14T01:36:00;5.13;;;2.33;;
64401;SDS011;50724;42.376;23.768;2024-02-14T01:39:01;5.93;;;2.70;;
64401;SDS011;50724;42.376;23.768;2024-02-14T01:42:01;6.47;;;2.53;;
64401;SDS011;50724;42.376;23.768;2024-02-14T01:45:07;6.72;;;2.70;;
64401;SDS011;50724;42.376;23.768;2024-02-14T01:48:07;7.20;;;3.05;;
64401;SDS011;50724;42.376;23.768;2024-02-14T01:51:19;6.03;;;2.75;;
64401;SDS011;50724;42.376;23.768;2024-02-14T01:54:24;6.43;;;2.80;;
64401;SDS011;50724;42.376;23.768;2024-02-14T01:57:26;4.90;;;2.03;;
64401;SDS011;50724;42.376;23.768;2024-02-14T02:00:27;5.40;;;2.45;;
64401;SDS011;50724;42.376;23.768;2024-02-14T02:03:28;6.07;;;2.40;;
64401;SDS011;50724;42.376;23.768;2024-02-14T02:06:29;3.95;;;2.00;;
64401;SDS011;50724;42.376;23.768;2024-02-14T02:09:30;4.82;;;2.22;;
64401;SDS011;50724;42.376;23.768;2024-02-14T02:12:31;4.75;;;1.90;;
64401;SDS011;50724;42.376;23.768;2024-02-14T02:15:32;5.05;;;2.25;;
64401;SDS011;50724;42.376;23.768;2024-02-14T02:18:32;4.60;;;2.20;;
64401;SDS011;50724;42.376;23.768;2024-02-14T02:21:33;5.15;;;2.33;;
64401;SDS011;50724;42.376;23.768;2024-02-14T02:24:35;6.47;;;2.33;;
64401;SDS011;50724;42.376;23.768;2024-02-14T02:27:35;4.32;;;1.95;;
64401;SDS011;50724;42.376;23.768;2024-02-14T02:30:37;4.28;;;2.00;;
64401;SDS011;50724;42.376;23.768;2024-02-14T02:33:38;3.65;;;2.00;;
64401;SDS011;50724;42.376;23.768;2024-02-14T02:36:38;5.40;;;2.30;;
64401;SDS011;50724;42.376;23.768;2024-02-14T02:39:40;5.68;;;2.30;;
64401;SDS011;50724;42.376;23.768;2024-02-14T02:42:41;5.40;;;2.17;;
64401;SDS011;50724;42.376;23.768;2024-02-14T02:45:41;4.88;;;2.05;;
64401;SDS011;50724;42.376;23.768;2024-02-14T02:48:42;6.50;;;2.80;;
64401;SDS011;50724;42.376;23.768;2024-02-14T02:51:42;4.68;;;2.45;;
64401;SDS011;50724;42.376;23.768;2024-02-14T02:54:43;8.88;;;3.40;;
64401;SDS011;50724;42.376;23.768;2024-02-14T02:57:52;6.13;;;2.83;;
64401;SDS011;50724;42.376;23.768;2024-02-14T03:00:52;6.65;;;2.85;;
64401;SDS011;50724;42.376;23.768;2024-02-14T03:03:55;7.38;;;3.17;;
64401;SDS011;50724;42.376;23.768;2024-02-14T03:06:56;7.07;;;3.22;;
64401;SDS011;50724;42.376;23.768;2024-02-14T03:09:56;6.53;;;2.67;;
64401;SDS011;50724;42.376;23.768;2024-02-14T03:13:06;7.20;;;3.30;;
64401;SDS011;50724;42.376;23.768;2024-02-14T03:16:09;6.03;;;2.72;;
64401;SDS011;50724;42.376;23.768;2024-02-14T03:19:11;6.07;;;2.50;;
64401;SDS011;50724;42.376;23.768;2024-02-14T03:22:11;5.70;;;2.67;;
64401;SDS011;50724;42.376;23.768;2024-02-14T03:25:16;4.15;;;2.13;;
64401;SDS011;50724;42.376;23.768;2024-02-14T03:28:17;5.30;;;2.40;;
64401;SDS011;50724;42.376;23.768;2024-02-14T03:31:18;6.30;;;2.80;;
64401;SDS011;50724;42.376;23.768;2024-02-14T03:34:18;4.35;;;2.08;;
64401;SDS011;50724;42.376;23.768;2024-02-14T03:37:19;7.43;;;2.90;;
64401;SDS011;50724;42.376;23.768;2024-02-14T03:40:20;5.32;;;2.30;;
64401;SDS011;50724;42.376;23.768;2024-02-14T03:43:20;4.65;;;2.63;;
64401;SDS011;50724;42.376;23.768;2024-02-14T03:49:24;7.40;;;2.65;;
64401;SDS011;50724;42.376;23.768;2024-02-14T03:52:25;5.78;;;2.60;;
64401;SDS011;50724;42.376;23.768;2024-02-14T03:55:26;6.72;;;2.97;;
64401;SDS011;50724;42.376;23.768;2024-02-14T03:58:26;5.53;;;3.05;;
64401;SDS011;50724;42.376;23.768;2024-02-14T04:01:27;6.32;;;3.47;;
64401;SDS011;50724;42.376;23.768;2024-02-14T04:04:27;7.97;;;3.65;;
64401;SDS011;50724;42.376;23.768;2024-02-14T04:07:28;7.78;;;3.33;;
64401;SDS011;50724;42.376;23.768;2024-02-14T04:10:31;6.63;;;3.10;;
64401;SDS011;50724;42.376;23.768;2024-02-14T04:13:32;7.60;;;3.50;;
64401;SDS011;50724;42.376;23.768;2024-02-14T04:16:32;8.07;;;3.35;;
64401;SDS011;50724;42.376;23.768;2024-02-14T04:19:33;6.40;;;3.13;;
64401;SDS011;50724;42.376;23.768;2024-02-14T04:22:34;6.82;;;3.38;;
64401;SDS011;50724;42.376;23.768;2024-02-14T04:25:34;8.52;;;3.80;;
64401;SDS011;50724;42.376;23.768;2024-02-14T04:28:35;7.07;;;3.28;;
64401;SDS011;50724;42.376;23.768;2024-02-14T04:31:35;7.95;;;3.38;;
64401;SDS011;50724;42.376;23.768;2024-02-14T04:34:36;6.40;;;3.05;;
64401;SDS011;50724;42.376;23.768;2024-02-14T04:37:39;8.65;;;3.58;;
64401;SDS011;50724;42.376;23.768;2024-02-14T04:40:43;7.38;;;3.65;;
64401;SDS011;50724;42.376;23.768;2024-02-14T04:43:43;8.27;;;4.40;;
64401;SDS011;50724;42.376;23.768;2024-02-14T04:46:44;7.05;;;3.88;;
64401;SDS011;50724;42.376;23.768;2024-02-14T04:49:44;8.45;;;3.83;;
64401;SDS011;50724;42.376;23.768;2024-02-14T04:52:45;6.90;;;3.60;;
64401;SDS011;50724;42.376;23.768;2024-02-14T04:55:46;8.23;;;4.22;;
64401;SDS011;50724;42.376;23.768;2024-02-14T04:58:46;9.13;;;4.43;;
64401;SDS011;50724;42.376;23.768;2024-02-14T05:01:46;9.00;;;4.28;;
64401;SDS011;50724;42.376;23.768;2024-02-14T05:04:47;11.25;;;3.72;;
64401;SDS011;50724;42.376;23.768;2024-02-14T05:07:47;7.37;;;3.87;;
64401;SDS011;50724;42.376;23.768;2024-02-14T05:10:48;8.35;;;4.28;;
64401;SDS011;50724;42.376;23.768;2024-02-14T05:13:48;6.78;;;3.28;;
64401;SDS011;50724;42.376;23.768;2024-02-14T05:16:49;9.10;;;3.90;;
64401;SDS011;50724;42.376;23.768;2024-02-14T05:19:49;9.38;;;4.40;;
64401;SDS011;50724;42.376;23.768;2024-02-14T05:22:50;10.05;;;4.30;;
64401;SDS011;50724;42.376;23.768;2024-02-14T05:25:51;10.13;;;4.70;;
64401;SDS011;50724;42.376;23.768;2024-02-14T05:28:51;9.18;;;3.95;;
64401;SDS011;50724;42.376;23.768;2024-02-14T05:31:52;7.57;;;4.35;;
64401;SDS011;50724;42.376;23.768;2024-02-14T05:34:55;10.77;;;4.68;;
64401;SDS011;50724;42.376;23.768;2024-02-14T05:37:55;8.38;;;4.35;;
64401;SDS011;50724;42.376;23.768;2024-02-14T05:40:56;8.55;;;4.38;;
64401;SDS011;50724;42.376;23.768;2024-02-14T05:43:56;8.95;;;4.38;;
64401;SDS011;50724;42.376;23.768;2024-02-14T05:46:57;8.73;;;4.57;;
64401;SDS011;50724;42.376;23.768;2024-02-14T05:49:57;11.60;;;5.18;;
64401;SDS011;50724;42.376;23.768;2024-02-14T05:52:58;8.68;;;4.13;;
64401;SDS011;50724;42.376;23.768;2024-02-14T05:55:59;10.00;;;4.95;;
64401;SDS011;50724;42.376;23.768;2024-02-14T05:58:59;9.07;;;4.88;;
64401;SDS011;50724;42.376;23.768;2024-02-14T06:02:00;11.07;;;5.85;;
64401;SDS011;50724;42.376;23.768;2024-02-14T06:08:03;13.10;;;5.15;;
64401;SDS011;50724;42.376;23.768;2024-02-14T06:11:04;9.23;;;4.53;;
64401;SDS011;50724;42.376;23.768;2024-02-14T06:14:08;12.57;;;6.28;;
64401;SDS011;50724;42.376;23.768;2024-02-14T06:17:08;10.48;;;5.75;;
64401;SDS011;50724;42.376;23.768;2024-02-14T06:20:09;10.43;;;5.47;;
64401;SDS011;50724;42.376;23.768;2024-02-14T06:23:09;12.73;;;4.72;;
64401;SDS011;50724;42.376;23.768;2024-02-14T06:26:10;13.25;;;5.88;;
64401;SDS011;50724;42.376;23.768;2024-02-14T06:29:10;10.70;;;5.72;;
64401;SDS011;50724;42.376;23.768;2024-02-14T06:32:12;10.68;;;5.72;;
64401;SDS011;50724;42.376;23.768;2024-02-14T06:35:13;10.55;;;4.82;;
64401;SDS011;50724;42.376;23.768;2024-02-14T06:38:15;10.93;;;5.43;;
64401;SDS011;50724;42.376;23.768;2024-02-14T06:41:15;14.95;;;6.00;;
64401;SDS011;50724;42.376;23.768;2024-02-14T06:44:16;10.88;;;4.95;;
64401;SDS011;50724;42.376;23.768;2024-02-14T06:47:18;10.85;;;5.57;;
64401;SDS011;50724;42.376;23.768;2024-02-14T06:50:18;10.88;;;5.53;;
64401;SDS011;50724;42.376;23.768;2024-02-14T06:53:19;11.73;;;5.55;;
64401;SDS011;50724;42.376;23.768;2024-02-14T06:56:19;11.55;;;5.22;;
64401;SDS011;50724;42.376;23.768;2024-02-14T06:59:19;12.00;;;6.72;;
64401;SDS011;50724;42.376;23.768;2024-02-14T07:02:20;11.90;;;5.78;;
64401;SDS011;50724;42.376;23.768;2024-02-14T07:05:21;9.00;;;5.10;;
64401;SDS011;50724;42.376;23.768;2024-02-14T07:08:21;12.45;;;6.30;;
64401;SDS011;50724;42.376;23.768;2024-02-14T07:11:22;14.65;;;6.85;;
64401;SDS011;50724;42.376;23.768;2024-02-14T07:14:22;16.33;;;6.75;;
64401;SDS011;50724;42.376;23.768;2024-02-14T07:17:23;11.20;;;6.20;;
64401;SDS011;50724;42.376;23.768;2024-02-14T07:20:24;13.50;;;6.20;;
64401;SDS011;50724;42.376;23.768;2024-02-14T07:23:27;13.88;;;6.13;;
64401;SDS011;50724;42.376;23.768;2024-02-14T07:26:27;12.38;;;6.78;;
64401;SDS011;50724;42.376;23.768;2024-02-14T07:29:28;15.15;;;7.05;;
64401;SDS011;50724;42.376;23.768;2024-02-14T07:32:29;13.15;;;6.63;;
64401;SDS011;50724;42.376;23.768;2024-02-14T07:35:29;12.75;;;6.45;;
64401;SDS011;50724;42.376;23.768;2024-02-14T07:38:40;13.65;;;6.43;;
64401;SDS011;50724;42.376;23.768;2024-02-14T07:41:42;13.68;;;6.13;;
64401;SDS011;50724;42.376;23.768;2024-02-14T07:44:52;15.00;;;6.32;;
64401;SDS011;50724;42.376;23.768;2024-02-14T07:47:52;10.77;;;5.57;;
64401;SDS011;50724;42.376;23.768;2024-02-14T07:51:02;9.43;;;4.60;;
64401;SDS011;50724;42.376;23.768;2024-02-14T07:54:07;12.90;;;6.40;;
64401;SDS011;50724;42.376;23.768;2024-02-14T07:57:07;13.57;;;7.03;;
64401;SDS011;50724;42.376;23.768;2024-02-14T08:00:08;8.93;;;5.18;;
64401;SDS011;50724;42.376;23.768;2024-02-14T08:03:10;10.23;;;5.38;;
64401;SDS011;50724;42.376;23.768;2024-02-14T08:06:10;10.45;;;5.53;;
64401;SDS011;50724;42.376;23.768;2024-02-14T08:09:10;12.27;;;6.38;;
64401;SDS011;50724;42.376;23.768;2024-02-14T08:12:11;12.02;;;5.88;;
64401;SDS011;50724;42.376;23.768;2024-02-14T08:19:08;13.05;;;6.25;;
64401;SDS011;50724;42.376;23.768;2024-02-14T08:22:09;16.75;;;7.00;;
64401;SDS011;50724;42.376;23.768;2024-02-14T08:25:09;11.40;;;5.97;;
64401;SDS011;50724;42.376;23.768;2024-02-14T08:28:10;11.57;;;5.72;;
64401;SDS011;50724;42.376;23.768;2024-02-14T08:31:11;12.48;;;5.85;;
64401;SDS011;50724;42.376;23.768;2024-02-14T08:34:12;11.60;;;5.95;;
64401;SDS011;50724;42.376;23.768;2024-02-14T08:37:13;14.30;;;5.60;;
64401;SDS011;50724;42.376;23.768;2024-02-14T08:40:13;9.23;;;4.18;;
64401;SDS011;50724;42.376;23.768;2024-02-14T08:43:14;12.02;;;5.00;;
64401;SDS011;50724;42.376;23.768;2024-02-14T08:46:14;9.63;;;5.00;;
64401;SDS011;50724;42.376;23.768;2024-02-14T08:49:17;11.38;;;4.75;;
64401;SDS011;50724;42.376;23.768;2024-02-14T08:52:18;8.52;;;4.32;;
64401;SDS011;50724;42.376;23.768;2024-02-14T08:55:18;9.63;;;5.15;;
64401;SDS011;50724;42.376;23.768;2024-02-14T08:58:19;8.95;;;4.57;;
64401;SDS011;50724;42.376;23.768;2024-02-14T09:01:19;7.88;;;4.35;;
64401;SDS011;50724;42.376;23.768;2024-02-14T09:04:21;11.85;;;4.93;;
64401;SDS011;50724;42.376;23.768;2024-02-14T09:07:22;9.02;;;4.30;;
64401;SDS011;50724;42.376;23.768;2024-02-14T09:10:22;8.80;;;4.38;;
64401;SDS011;50724;42.376;23.768;2024-02-14T09:13:31;11.10;;;4.03;;
64401;SDS011;50724;42.376;23.768;2024-02-14T09:16:32;10.65;;;4.80;;
64401;SDS011;50724;42.376;23.768;2024-02-14T09:19:33;8.27;;;4.60;;
64401;SDS011;50724;42.376;23.768;2024-02-14T09:22:34;9.53;;;4.63;;
64401;SDS011;50724;42.376;23.768;2024-02-14T09:25:35;11.23;;;4.72;;
64401;SDS011;50724;42.376;23.768;2024-02-14T09:28:36;7.00;;;4.03;;
64401;SDS011;50724;42.376;23.768;2024-02-14T09:31:37;11.00;;;5.70;;
64401;SDS011;50724;42.376;23.768;2024-02-14T09:34:37;11.45;;;5.43;;
64401;SDS011;50724;42.376;23.768;2024-02-14T09:37:37;8.63;;;4.30;;
64401;SDS011;50724;42.376;23.768;2024-02-14T09:40:39;10.77;;;4.90;;
64401;SDS011;50724;42.376;23.768;2024-02-14T09:43:43;10.85;;;5.10;;
64401;SDS011;50724;42.376;23.768;2024-02-14T09:46:44;11.88;;;5.40;;
64401;SDS011;50724;42.376;23.768;2024-02-14T09:49:45;10.38;;;5.13;;
64401;SDS011;50724;42.376;23.768;2024-02-14T09:52:49;10.48;;;5.28;;
64401;SDS011;50724;42.376;23.768;2024-02-14T09:55:50;10.18;;;5.00;;
64401;SDS011;50724;42.376;23.768;2024-02-14T09:58:50;10.90;;;5.47;;
64401;SDS011;50724;42.376;23.768;2024-02-14T10:01:56;8.48;;;4.32;;
64401;SDS011;50724;42.376;23.768;2024-02-14T10:04:57;9.82;;;4.68;;
64401;SDS011;50724;42.376;23.768;2024-02-14T10:07:57;7.95;;;4.15;;
64401;SDS011;50724;42.376;23.768;2024-02-14T10:10:58;9.57;;;4.32;;
64401;SDS011;50724;42.376;23.768;2024-02-14T10:14:04;8.43;;;4.85;;
64401;SDS011;50724;42.376;23.768;2024-02-14T10:17:09;11.32;;;4.55;;
64401;SDS011;50724;42.376;23.768;2024-02-14T10:20:18;12.32;;;4.78;;
64401;SDS011;50724;42.376;23.768;2024-02-14T10:23:18;10.07;;;5.22;;
64401;SDS011;50724;42.376;23.768;2024-02-14T10:26:19;10.77;;;4.60;;
64401;SDS011;50724;42.376;23.768;2024-02-14T10:29:20;7.22;;;3.25;;
64401;SDS011;50724;42.376;23.768;2024-02-14T10:32:22;11.85;;;5.07;;
64401;SDS011;50724;42.376;23.768;2024-02-14T10:35:24;10.77;;;5.05;;
64401;SDS011;50724;42.376;23.768;2024-02-14T10:38:25;8.00;;;4.28;;
64401;SDS011;50724;42.376;23.768;2024-02-14T10:41:27;7.40;;;3.42;;
64401;SDS011;50724;42.376;23.768;2024-02-14T10:44:35;13.20;;;4.53;;
64401;SDS011;50724;42.376;23.768;2024-02-14T10:47:35;7.38;;;4.10;;
64401;SDS011;50724;42.376;23.768;2024-02-14T10:50:40;10.75;;;4.63;;
64401;SDS011;50724;42.376;23.768;2024-02-14T10:53:42;8.63;;;4.43;;
64401;SDS011;50724;42.376;23.768;2024-02-14T10:56:48;5.93;;;3.17;;
64401;SDS011;50724;42.376;23.768;2024-02-14T11:00:06;8.32;;;4.50;;
64401;SDS011;50724;42.376;23.768;2024-02-14T11:03:09;8.32;;;4.28;;
64401;SDS011;50724;42.376;23.768;2024-02-14T11:06:14;6.90;;;3.10;;
64401;SDS011;50724;42.376;23.768;2024-02-14T11:09:16;9.63;;;3.63;;
64401;SDS011;50724;42.376;23.768;2024-02-14T11:12:17;6.57;;;3.17;;
64401;SDS011;50724;42.376;23.768;2024-02-14T11:15:23;7.55;;;3.75;;
64401;SDS011;50724;42.376;23.768;2024-02-14T11:18:25;6.93;;;3.88;;
64401;SDS011;50724;42.376;23.768;2024-02-14T11:21:28;7.10;;;3.80;;
64401;SDS011;50724;42.376;23.768;2024-02-14T11:24:30;8.68;;;4.13;;
64401;SDS011;50724;42.376;23.768;2024-02-14T11:27:32;6.60;;;3.42;;
64401;SDS011;50724;42.376;23.768;2024-02-14T11:30:36;7.35;;;3.63;;
64401;SDS011;50724;42.376;23.768;2024-02-14T11:33:36;9.40;;;4.20;;
64401;SDS011;50724;42.376;23.768;2024-02-14T11:36:37;7.22;;;3.88;;
64401;SDS011;50724;42.376;23.768;2024-02-14T11:39:38;5.72;;;3.08;;
64401;SDS011;50724;42.376;23.768;2024-02-14T11:42:39;6.47;;;3.53;;
64401;SDS011;50724;42.376;23.768;2024-02-14T11:45:43;10.23;;;4.93;;
64401;SDS011;50724;42.376;23.768;2024-02-14T11:48:45;8.18;;;4.25;;
64401;SDS011;50724;42.376;23.768;2024-02-14T11:51:46;10.25;;;4.65;;
64401;SDS011;50724;42.376;23.768;2024-02-14T11:54:47;9.88;;;4.95;;
64401;SDS011;50724;42.376;23.768;2024-02-14T11:57:50;7.53;;;4.30;;
64401;SDS011;50724;42.376;23.768;2024-02-14T12:00:51;10.30;;;3.97;;
64401;SDS011;50724;42.376;23.768;2024-02-14T12:03:51;8.02;;;3.72;;
64401;SDS011;50724;42.376;23.768;2024-02-14T12:06:52;7.00;;;3.40;;
64401;SDS011;50724;42.376;23.768;2024-02-14T12:09:54;7.97;;;4.05;;
64401;SDS011;50724;42.376;23.768;2024-02-14T12:12:55;6.90;;;4.30;;
64401;SDS011;50724;42.376;23.768;2024-02-14T12:15:56;7.57;;;4.50;;
64401;SDS011;50724;42.376;23.768;2024-02-14T12:19:09;7.47;;;3.55;;
64401;SDS011;50724;42.376;23.768;2024-02-14T12:22:15;7.93;;;3.75;;
64401;SDS011;50724;42.376;23.768;2024-02-14T12:25:19;7.88;;;3.95;;
64401;SDS011;50724;42.376;23.768;2024-02-14T12:28:19;8.20;;;4.28;;
64401;SDS011;50724;42.376;23.768;2024-02-14T12:31:24;8.15;;;3.95;;
64401;SDS011;50724;42.376;23.768;2024-02-14T12:34:27;10.05;;;4.13;;
64401;SDS011;50724;42.376;23.768;2024-02-14T12:37:28;7.43;;;4.07;;
64401;SDS011;50724;42.376;23.768;2024-02-14T12:40:29;7.53;;;3.83;;
64401;SDS011;50724;42.376;23.768;2024-02-14T12:43:29;8.47;;;4.20;;
64401;SDS011;50724;42.376;23.768;2024-02-14T12:46:30;6.47;;;3.17;;
64401;SDS011;50724;42.376;23.768;2024-02-14T12:49:30;9.60;;;3.95;;
64401;SDS011;50724;42.376;23.768;2024-02-14T12:52:31;8.98;;;4.40;;
64401;SDS011;50724;42.376;23.768;2024-02-14T12:55:32;8.03;;;3.87;;
64401;SDS011;50724;42.376;23.768;2024-02-14T12:58:40;14.82;;;4.80;;
64401;SDS011;50724;42.376;23.768;2024-02-14T13:01:42;7.07;;;3.72;;
64401;SDS011;50724;42.376;23.768;2024-02-14T13:04:43;9.18;;;3.58;;
64401;SDS011;50724;42.376;23.768;2024-02-14T13:07:44;11.23;;;4.75;;
64401;SDS011;50724;42.376;23.768;2024-02-14T13:10:45;9.75;;;4.72;;
64401;SDS011;50724;42.376;23.768;2024-02-14T13:13:46;8.15;;;4.28;;
64401;SDS011;50724;42.376;23.768;2024-02-14T13:16:47;8.15;;;4.32;;
64401;SDS011;50724;42.376;23.768;2024-02-14T13:19:48;6.72;;;3.45;;
64401;SDS011;50724;42.376;23.768;2024-02-14T13:22:49;8.85;;;4.28;;
64401;SDS011;50724;42.376;23.768;2024-02-14T13:25:49;9.52;;;4.47;;
64401;SDS011;50724;42.376;23.768;2024-02-14T13:28:50;9.02;;;4.40;;
64401;SDS011;50724;42.376;23.768;2024-02-14T13:31:50;8.57;;;4.53;;
64401;SDS011;50724;42.376;23.768;2024-02-14T13:34:51;8.05;;;3.88;;
64401;SDS011;50724;42.376;23.768;2024-02-14T13:37:51;8.18;;;4.20;;
64401;SDS011;50724;42.376;23.768;2024-02-14T13:40:52;7.53;;;3.60;;
64401;SDS011;50724;42.376;23.768;2024-02-14T13:43:52;9.10;;;4.75;;
64401;SDS011;50724;42.376;23.768;2024-02-14T13:47:01;6.40;;;3.50;;
64401;SDS011;50724;42.376;23.768;2024-02-14T13:50:03;12.13;;;4.53;;
64401;SDS011;50724;42.376;23.768;2024-02-14T13:53:04;13.73;;;4.95;;
64401;SDS011;50724;42.376;23.768;2024-02-14T13:56:05;8.35;;;4.20;;
64401;SDS011;50724;42.376;23.768;2024-02-14T13:59:05;9.02;;;4.40;;
64401;SDS011;50724;42.376;23.768;2024-02-14T14:02:06;7.22;;;3.85;;
64401;SDS011;50724;42.376;23.768;2024-02-14T14:08:10;8.25;;;4.47;;
64401;SDS011;50724;42.376;23.768;2024-02-14T14:11:10;9.65;;;4.80;;
64401;SDS011;50724;42.376;23.768;2024-02-14T14:14:11;10.60;;;5.63;;
64401;SDS011;50724;42.376;23.768;2024-02-14T14:17:15;8.32;;;4.32;;
64401;SDS011;50724;42.376;23.768;2024-02-14T14:20:25;7.97;;;3.87;;
64401;SDS011;50724;42.376;23.768;2024-02-14T14:23:25;8.82;;;4.38;;
64401;SDS011;50724;42.376;23.768;2024-02-14T14:26:25;11.25;;;4.82;;
64401;SDS011;50724;42.376;23.768;2024-02-14T14:29:26;8.65;;;4.03;;
64401;SDS011;50724;42.376;23.768;2024-02-14T14:32:28;8.73;;;3.78;;
64401;SDS011;50724;42.376;23.768;2024-02-14T14:35:29;7.97;;;3.90;;
64401;SDS011;50724;42.376;23.768;2024-02-14T14:38:33;8.40;;;3.75;;
64401;SDS011;50724;42.376;23.768;2024-02-14T14:41:33;8.20;;;4.07;;
64401;SDS011;50724;42.376;23.768;2024-02-14T14:44:34;7.07;;;4.40;;
64401;SDS011;50724;42.376;23.768;2024-02-14T14:47:34;9.18;;;4.22;;
64401;SDS011;50724;42.376;23.768;2024-02-14T14:50:36;10.98;;;4.18;;
64401;SDS011;50724;42.376;23.768;2024-02-14T14:53:37;8.57;;;3.97;;
64401;SDS011;50724;42.376;23.768;2024-02-14T14:56:37;9.23;;;4.33;;
64401;SDS011;50724;42.376;23.768;2024-02-14T14:59:37;8.27;;;5.15;;
64401;SDS011;50724;42.376;23.768;2024-02-14T15:02:38;7.97;;;4.73;;
64401;SDS011;50724;42.376;23.768;2024-02-14T15:05:41;8.07;;;4.57;;
64401;SDS011;50724;42.376;23.768;2024-02-14T15:08:42;8.07;;;3.63;;
64401;SDS011;50724;42.376;23.768;2024-02-14T15:11:43;7.95;;;3.70;;
64401;SDS011;50724;42.376;23.768;2024-02-14T15:14:44;10.80;;;4.45;;
64401;SDS011;50724;42.376;23.768;2024-02-14T15:17:44;11.18;;;3.85;;
64401;SDS011;50724;42.376;23.768;2024-02-14T15:20:44;7.03;;;3.60;;
64401;SDS011;50724;42.376;23.768;2024-02-14T15:23:45;7.38;;;3.72;;
64401;SDS011;50724;42.376;23.768;2024-02-14T15:26:45;8.95;;;4.35;;
64401;SDS011;50724;42.376;23.768;2024-02-14T15:29:49;7.20;;;3.72;;
64401;SDS011;50724;42.376;23.768;2024-02-14T15:33:09;7.53;;;3.65;;
64401;SDS011;50724;42.376;23.768;2024-02-14T15:36:26;8.35;;;3.65;;
64401;SDS011;50724;42.376;23.768;2024-02-14T15:39:26;12.40;;;4.38;;
64401;SDS011;50724;42.376;23.768;2024-02-14T15:42:27;9.07;;;4.13;;
64401;SDS011;50724;42.376;23.768;2024-02-14T15:45:27;9.67;;;4.20;;
64401;SDS011;50724;42.376;23.768;2024-02-14T15:48:27;10.23;;;4.33;;
64401;SDS011;50724;42.376;23.768;2024-02-14T15:51:31;10.20;;;3.60;;
64401;SDS011;50724;42.376;23.768;2024-02-14T15:54:31;8.63;;;4.05;;
64401;SDS011;50724;42.376;23.768;2024-02-14T15:57:32;8.82;;;4.20;;
64401;SDS011;50724;42.376;23.768;2024-02-14T16:00:32;8.10;;;4.07;;
64401;SDS011;50724;42.376;23.768;2024-02-14T16:03:34;8.98;;;4.25;;
64401;SDS011;50724;42.376;23.768;2024-02-14T16:06:34;8.60;;;3.77;;
64401;SDS011;50724;42.376;23.768;2024-02-14T16:09:35;7.82;;;4.45;;
64401;SDS011;50724;42.376;23.768;2024-02-14T16:12:36;7.68;;;3.42;;
64401;SDS011;50724;42.376;23.768;2024-02-14T16:15:37;10.48;;;4.30;;
64401;SDS011;50724;42.376;23.768;2024-02-14T16:18:38;8.25;;;4.32;;
64401;SDS011;50724;42.376;23.768;2024-02-14T16:21:39;11.23;;;4.80;;
64401;SDS011;50724;42.376;23.768;2024-02-14T16:24:39;10.45;;;4.32;;
64401;SDS011;50724;42.376;23.768;2024-02-14T16:27:40;8.88;;;3.85;;
64401;SDS011;50724;42.376;23.768;2024-02-14T16:30:41;8.55;;;4.00;;
64401;SDS011;50724;42.376;23.768;2024-02-14T16:33:41;7.78;;;4.03;;
64401;SDS011;50724;42.376;23.768;2024-02-14T16:36:42;9.02;;;4.15;;
64401;SDS011;50724;42.376;23.768;2024-02-14T16:39:43;7.67;;;3.93;;
64401;SDS011;50724;42.376;23.768;2024-02-14T16:42:44;9.13;;;4.35;;
64401;SDS011;50724;42.376;23.768;2024-02-14T16:45:44;8.30;;;4.18;;
64401;SDS011;50724;42.376;23.768;2024-02-14T16:48:46;7.75;;;3.60;;
64401;SDS011;50724;42.376;23.768;2024-02-14T16:51:46;9.75;;;4.25;;
64401;SDS011;50724;42.376;23.768;2024-02-14T16:54:47;10.32;;;4.28;;
64401;SDS011;50724;42.376;23.768;2024-02-14T16:57:47;11.67;;;4.10;;
64401;SDS011;50724;42.376;23.768;2024-02-14T17:00:56;10.90;;;4.50;;
64401;SDS011;50724;42.376;23.768;2024-02-14T17:03:56;7.35;;;3.80;;
64401;SDS011;50724;42.376;23.768;2024-02-14T17:06:57;10.95;;;4.40;;
64401;SDS011;50724;42.376;23.768;2024-02-14T17:09:57;6.95;;;3.88;;
64401;SDS011;50724;42.376;23.768;2024-02-14T17:12:58;8.63;;;4.38;;
64401;SDS011;50724;42.376;23.768;2024-02-14T17:15:59;9.32;;;4.53;;
64401;SDS011;50724;42.376;23.768;2024-02-14T17:18:59;9.87;;;4.57;;
64401;SDS011;50724;42.376;23.768;2024-02-14T17:22:00;11.67;;;4.83;;
64401;SDS011;50724;42.376;23.768;2024-02-14T17:25:00;9.85;;;4.68;;
64401;SDS011;50724;42.376;23.768;2024-02-14T17:28:01;8.45;;;3.33;;
64401;SDS011;50724;42.376;23.768;2024-02-14T17:31:03;6.57;;;3.47;;
64401;SDS011;50724;42.376;23.768;2024-02-14T17:34:03;7.32;;;3.83;;
64401;SDS011;50724;42.376;23.768;2024-02-14T17:37:05;8.90;;;4.25;;
64401;SDS011;50724;42.376;23.768;2024-02-14T17:40:08;8.15;;;4.03;;
64401;SDS011;50724;42.376;23.768;2024-02-14T17:43:09;7.95;;;3.80;;
64401;SDS011;50724;42.376;23.768;2024-02-14T17:46:10;9.63;;;4.17;;
64401;SDS011;50724;42.376;23.768;2024-02-14T17:49:10;10.27;;;4.35;;
64401;SDS011;50724;42.376;23.768;2024-02-14T17:52:16;10.18;;;3.95;;
64401;SDS011;50724;42.376;23.768;2024-02-14T17:55:17;7.25;;;3.38;;
64401;SDS011;50724;42.376;23.768;2024-02-14T17:58:18;9.10;;;3.67;;
64401;SDS011;50724;42.376;23.768;2024-02-14T18:01:21;9.18;;;3.90;;
64401;SDS011;50724;42.376;23.768;2024-02-14T18:04:21;7.38;;;3.33;;
64401;SDS011;50724;42.376;23.768;2024-02-14T18:07:22;6.88;;;3.08;;